Time;durP1;ratioP1;P1;durP2;ratioP2;P2;SDS_P1;SDS_P2;PMS_P1;PMS_P2;Temp;Humidity;BMP_temperature;BMP_pressure;BME280_temperature;BME280_humidity;BME280_pressure;Samples;Min_cycle;Max_cycle;Signal;HPM_P1;HPM_P2
2023/10/10 00:02:05;;;;;;;;;;;19.20;82.00;;;;;;4981499;28;19913;-54
2023/10/10 00:04:33;;;;;;;;;;;19.20;82.10;;;;;;4992766;28;19968;-54
2023/10/10 00:07:06;;;;;;;;;;;19.20;82.10;;;;;;4994390;28;19925;-54
2023/10/10 00:09:31;;;;;;;;;;;19.20;82.10;;;;;;4999793;28;19914;-53
2023/10/10 00:11:58;;;;;;;;;;;19.20;82.10;;;;;;4986605;28;19921;-54
2023/10/10 00:14:27;;;;;;;;;;;19.20;82.20;;;;;;4988861;28;19918;-54
2023/10/10 00:16:55;;;;;;;;;;;19.20;82.30;;;;;;4991071;28;19921;-54
2023/10/10 00:21:54;;;;;;;;;;;19.20;82.30;;;;;;4992402;28;20342;-54
2023/10/10 00:24:32;;;;;;;;;;;19.10;82.20;;;;;;4991722;28;19917;-54
2023/10/10 00:27:14;;;;;;;;;;;19.20;82.20;;;;;;4991954;28;20407;-54
2023/10/10 00:29:42;;;;;;;;;;;19.20;82.30;;;;;;4990208;28;20374;-54
2023/10/10 00:32:17;;;;;;;;;;;19.10;82.20;;;;;;4988971;28;19921;-54
2023/10/10 00:34:50;;;;;;;;;;;19.10;82.30;;;;;;4958530;28;19914;-53
2023/10/10 00:37:20;;;;;;;;;;;19.10;82.30;;;;;;4975772;28;19910;-54
2023/10/10 00:39:52;;;;;;;;;;;19.10;82.30;;;;;;4986078;28;19921;-54
2023/10/10 00:42:21;;;;;;;;;;;19.10;82.30;;;;;;4997697;28;19914;-53
2023/10/10 00:44:47;;;;;;;;;;;19.10;82.30;;;;;;4991383;28;19914;-53
2023/10/10 00:47:13;;;;;;;;;;;19.10;82.20;;;;;;4989604;28;20442;-54
2023/10/10 00:49:40;;;;;;;;;;;19.10;82.30;;;;;;4986453;28;20012;-54
2023/10/10 00:52:12;;;;;;;;;;;19.10;82.30;;;;;;4992695;28;19914;-54
2023/10/10 00:54:43;;;;;;;;;;;19.10;82.30;;;;;;4998231;28;19921;-54
2023/10/10 00:57:17;;;;;;;;;;;19.10;82.30;;;;;;4987442;28;20404;-54
2023/10/10 00:59:43;;;;;;;;;;;19.10;82.30;;;;;;4992359;28;19994;-54
2023/10/10 01:02:12;;;;;;;;;;;19.10;82.40;;;;;;4979869;28;19942;-53
2023/10/10 01:05:05;;;;;;;;;;;19.10;82.30;;;;;;4992465;28;19921;-53
2023/10/10 01:07:26;;;;;;;;;;;19.10;82.30;;;;;;4985570;28;19928;-54
2023/10/10 01:10:11;;;;;;;;;;;19.10;82.40;;;;;;4991199;28;19945;-54
2023/10/10 01:12:36;;;;;;;;;;;19.10;82.30;;;;;;4988815;28;20024;-53
2023/10/10 01:15:07;;;;;;;;;;;19.10;82.30;;;;;;4989009;28;20109;-55
2023/10/10 01:17:33;;;;;;;;;;;19.10;82.20;;;;;;4991543;28;19918;-54
2023/10/10 01:20:18;;;;;;;;;;;19.20;82.00;;;;;;4990001;28;20354;-53
2023/10/10 01:22:47;;;;;;;;;;;19.20;82.50;;;;;;4987151;28;19953;-54
2023/10/10 01:25:42;;;;;;;;;;;19.20;81.70;;;;;;4993503;28;19914;-54
2023/10/10 01:28:33;;;;;;;;;;;19.30;81.50;;;;;;4986912;28;19922;-54
2023/10/10 01:33:22;;;;;;;;;;;19.50;80.40;;;;;;4990984;28;19925;-54
2023/10/10 01:35:52;;;;;;;;;;;19.60;80.00;;;;;;4991986;28;19914;-54
2023/10/10 01:38:27;;;;;;;;;;;19.70;79.80;;;;;;4988315;28;20282;-54
2023/10/10 01:40:54;;;;;;;;;;;19.80;79.60;;;;;;4986657;28;19914;-54
2023/10/10 01:43:20;;;;;;;;;;;19.90;79.00;;;;;;4992856;28;20401;-54
2023/10/10 01:45:48;;;;;;;;;;;19.90;78.70;;;;;;4991396;28;19945;-54
2023/10/10 01:48:14;;;;;;;;;;;19.90;78.60;;;;;;4992348;28;19963;-54
2023/10/10 01:50:39;;;;;;;;;;;19.90;78.60;;;;;;4989766;28;20007;-54
2023/10/10 01:53:09;;;;;;;;;;;19.90;78.60;;;;;;4992352;28;19983;-54
2023/10/10 01:55:36;;;;;;;;;;;19.90;78.60;;;;;;4988746;28;19917;-54
2023/10/10 01:58:02;;;;;;;;;;;20.00;78.30;;;;;;4989452;28;19968;-55
2023/10/10 02:00:34;;;;;;;;;;;20.00;78.10;;;;;;4987150;28;19922;-54
2023/10/10 02:03:01;;;;;;;;;;;20.10;77.80;;;;;;4998435;28;19918;-54
2023/10/10 02:05:41;;;;;;;;;;;20.10;77.60;;;;;;4991216;28;20049;-54
2023/10/10 02:08:11;;;;;;;;;;;20.10;77.40;;;;;;4987786;28;19917;-54
2023/10/10 02:10:41;;;;;;;;;;;20.10;77.60;;;;;;4989166;28;19914;-54
2023/10/10 02:13:07;;;;;;;;;;;20.10;77.60;;;;;;4977599;28;19921;-54
2023/10/10 02:15:35;;;;;;;;;;;20.10;77.50;;;;;;4986020;28;19914;-54
2023/10/10 02:18:12;;;;;;;;;;;20.10;77.50;;;;;;4991483;28;19914;-55
2023/10/10 02:26:01;;;;;;;;;;;20.10;77.40;;;;;;4989632;28;19921;-54
2023/10/10 02:28:49;;;;;;;;;;;20.10;77.40;;;;;;4982225;28;19928;-55
2023/10/10 02:31:15;;;;;;;;;;;20.00;77.40;;;;;;4991244;28;19921;-54
2023/10/10 02:33:48;;;;;;;;;;;20.10;77.50;;;;;;4989862;28;19921;-55
2023/10/10 02:36:14;;;;;;;;;;;20.00;77.40;;;;;;4998977;28;20323;-54
2023/10/10 02:38:40;;;;;;;;;;;20.00;77.50;;;;;;4985207;28;20017;-54
2023/10/10 02:41:25;;;;;;;;;;;20.00;77.50;;;;;;4990593;28;20384;-54
2023/10/10 02:44:05;;;;;;;;;;;20.00;77.50;;;;;;4990167;28;19918;-54
2023/10/10 02:46:35;;;;;;;;;;;19.90;77.40;;;;;;4990495;28;19921;-53
2023/10/10 02:49:29;;;;;;;;;;;20.00;77.60;;;;;;4995242;28;20306;-54
2023/10/10 02:51:55;;;;;;;;;;;20.00;77.50;;;;;;4989403;28;20002;-54
2023/10/10 02:56:56;;;;;;;;;;;19.90;77.50;;;;;;4993962;28;20055;-55
2023/10/10 02:59:23;;;;;;;;;;;19.90;77.40;;;;;;4991858;28;19979;-55
2023/10/10 03:04:22;;;;;;;;;;;19.90;77.30;;;;;;5001420;28;19918;-54
2023/10/10 03:06:48;;;;;;;;;;;19.90;77.40;;;;;;4991162;28;20000;-54
2023/10/10 03:09:27;;;;;;;;;;;19.90;77.50;;;;;;4990434;28;19945;-54
2023/10/10 03:11:53;;;;;;;;;;;19.90;77.40;;;;;;4986897;28;19921;-54
2023/10/10 03:14:27;;;;;;;;;;;19.90;77.40;;;;;;4990479;28;19914;-55
2023/10/10 03:17:06;;;;;;;;;;;19.90;77.50;;;;;;4973411;28;19914;-53
2023/10/10 03:19:41;;;;;;;;;;;19.90;77.40;;;;;;4982598;28;20317;-54
2023/10/10 03:25:22;;;;;;;;;;;19.90;77.50;;;;;;4990735;28;19921;-54
2023/10/10 03:27:50;;;;;;;;;;;19.90;77.40;;;;;;4973681;28;19929;-54
2023/10/10 03:30:19;;;;;;;;;;;19.90;77.20;;;;;;4992301;28;19920;-53
2023/10/10 03:33:08;;;;;;;;;;;20.00;77.10;;;;;;4994017;28;19914;-54
2023/10/10 03:35:51;;;;;;;;;;;20.00;77.10;;;;;;4992299;28;19921;-54
2023/10/10 03:39:23;;;;;;;;;;;20.00;77.00;;;;;;4987119;28;20014;-53
2023/10/10 03:41:26;;;;;;;;;;;20.00;76.90;;;;;;4983150;28;20302;-54
2023/10/10 05:25:22;;;;;;;;;;;19.80;76.90;;;;;;4992453;28;20742;-54
2023/10/10 05:27:48;;;;;;;;;;;19.80;76.90;;;;;;4980040;28;19982;-55
2023/10/10 05:30:27;;;;;;;;;;;19.80;76.80;;;;;;4975178;28;19918;-55
2023/10/10 05:33:02;;;;;;;;;;;19.80;76.70;;;;;;4984681;28;20022;-54
2023/10/10 05:35:28;;;;;;;;;;;19.90;76.80;;;;;;4989219;28;19920;-54
2023/10/10 05:37:54;;;;;;;;;;;19.90;76.60;;;;;;4991075;28;19918;-55
2023/10/10 05:40:20;;;;;;;;;;;19.90;76.60;;;;;;4991865;28;19932;-54
2023/10/10 05:42:45;;;;;;;;;;;19.90;76.60;;;;;;4991301;28;19952;-53
2023/10/10 05:45:13;;;;;;;;;;;19.90;76.50;;;;;;4988119;28;19941;-54
2023/10/10 05:47:39;;;;;;;;;;;19.90;76.40;;;;;;4992317;28;19976;-54
2023/10/10 05:50:06;;;;;;;;;;;19.90;76.30;;;;;;4989835;28;20326;-55
2023/10/10 05:52:33;;;;;;;;;;;19.90;76.40;;;;;;4992644;28;19921;-54
2023/10/10 05:54:58;;;;;;;;;;;19.90;76.50;;;;;;4990044;28;19922;-54
2023/10/10 05:57:24;;;;;;;;;;;19.90;76.50;;;;;;4990907;28;20009;-54
2023/10/10 05:59:49;;;;;;;;;;;19.90;76.40;;;;;;4979254;28;19925;-54
2023/10/10 06:02:16;;;;;;;;;;;19.90;76.40;;;;;;4985320;28;19917;-54
2023/10/10 06:04:43;;;;;;;;;;;19.80;76.40;;;;;;4985014;28;19914;-53
2023/10/10 06:07:10;;;;;;;;;;;19.80;76.70;;;;;;4992509;28;19948;-54
2023/10/10 06:09:40;;;;;;;;;;;19.80;76.80;;;;;;4989687;28;20371;-54
2023/10/10 06:12:05;;;;;;;;;;;19.80;76.60;;;;;;4989520;28;20519;-55
2023/10/10 06:14:31;;;;;;;;;;;19.80;76.50;;;;;;4979537;28;19926;-54
2023/10/10 06:16:57;;;;;;;;;;;19.80;76.50;;;;;;4983600;28;19921;-54
2023/10/10 06:19:22;;;;;;;;;;;19.80;76.70;;;;;;4989537;28;20266;-54
2023/10/10 06:21:48;;;;;;;;;;;19.80;76.80;;;;;;4986923;28;19914;-55
2023/10/10 06:24:13;;;;;;;;;;;19.80;76.90;;;;;;4992553;28;19910;-55
2023/10/10 06:26:45;;;;;;;;;;;19.80;76.80;;;;;;4989217;28;20012;-55
2023/10/10 06:29:12;;;;;;;;;;;19.80;76.80;;;;;;4985621;28;19980;-55
2023/10/10 06:31:42;;;;;;;;;;;19.80;76.80;;;;;;4989879;28;19910;-54
2023/10/10 06:34:19;;;;;;;;;;;19.80;76.90;;;;;;4975795;28;19918;-54
2023/10/10 06:36:47;;;;;;;;;;;19.80;77.00;;;;;;4994068;28;20319;-54
2023/10/10 06:41:48;;;;;;;;;;;19.80;76.80;;;;;;4991934;28;19965;-55
2023/10/10 06:44:13;;;;;;;;;;;19.80;76.70;;;;;;4984522;28;20102;-53
2023/10/10 06:46:42;;;;;;;;;;;19.80;76.90;;;;;;4991557;28;20017;-54
2023/10/10 06:49:11;;;;;;;;;;;19.80;76.90;;;;;;4987326;28;19914;-54
2023/10/10 06:51:39;;;;;;;;;;;19.80;76.80;;;;;;4979027;28;19914;-55
2023/10/10 06:54:08;;;;;;;;;;;19.80;76.80;;;;;;4985922;28;19917;-55
2023/10/10 06:57:04;;;;;;;;;;;19.80;77.00;;;;;;4986509;28;20375;-55
2023/10/10 06:59:29;;;;;;;;;;;19.70;77.00;;;;;;5002694;28;19929;-55
2023/10/10 07:01:59;;;;;;;;;;;19.90;76.70;;;;;;4986838;28;20357;-55
2023/10/10 07:04:28;;;;;;;;;;;20.40;75.50;;;;;;4994326;28;19918;-56
2023/10/10 07:06:59;;;;;;;;;;;21.20;73.10;;;;;;4993552;28;20008;-56
2023/10/10 07:09:28;;;;;;;;;;;21.70;71.20;;;;;;4986379;28;19949;-55
2023/10/10 07:11:54;;;;;;;;;;;21.80;70.80;;;;;;4992745;28;19918;-55
2023/10/10 07:14:20;;;;;;;;;;;21.90;70.70;;;;;;4992233;28;19922;-57
2023/10/10 07:16:45;;;;;;;;;;;21.90;70.70;;;;;;4991020;28;20375;-55
2023/10/10 07:19:22;;;;;;;;;;;22.00;70.40;;;;;;4996061;28;19938;-55
2023/10/10 07:21:50;;;;;;;;;;;22.10;70.10;;;;;;4993986;28;19913;-54
2023/10/10 07:24:16;;;;;;;;;;;22.10;70.00;;;;;;4993950;28;20092;-55
2023/10/10 07:26:42;;;;;;;;;;;22.30;69.70;;;;;;4970029;28;19913;-55
2023/10/10 07:32:15;;;;;;;;;;;22.50;69.10;;;;;;4987815;28;19925;-54
2023/10/10 07:34:42;;;;;;;;;;;22.70;69.20;;;;;;4984594;28;20412;-55
2023/10/10 07:37:08;;;;;;;;;;;22.70;68.90;;;;;;4993434;28;19913;-54
2023/10/10 07:39:54;;;;;;;;;;;22.80;69.10;;;;;;4989359;28;19922;-55
2023/10/10 07:42:27;;;;;;;;;;;22.70;69.30;;;;;;4992705;28;19917;-54
2023/10/10 07:45:14;;;;;;;;;;;22.50;69.50;;;;;;4998579;28;20008;-54
2023/10/10 07:50:27;;;;;;;;;;;22.50;70.10;;;;;;4995192;28;20481;-54
2023/10/10 07:52:52;;;;;;;;;;;22.50;69.70;;;;;;4988833;28;19918;-54
2023/10/10 07:55:18;;;;;;;;;;;22.50;69.90;;;;;;5004764;28;19983;-55
2023/10/10 07:57:55;;;;;;;;;;;22.50;70.10;;;;;;4992377;28;19956;-54
2023/10/10 08:00:27;;;;;;;;;;;22.50;70.30;;;;;;4993758;28;19921;-55
2023/10/10 08:02:53;;;;;;;;;;;22.50;69.80;;;;;;4992966;28;20306;-53
2023/10/10 08:05:19;;;;;;;;;;;22.50;70.20;;;;;;4990951;28;19913;-54
2023/10/10 08:07:45;;;;;;;;;;;22.30;70.70;;;;;;4991718;28;19922;-54
2023/10/10 08:10:29;;;;;;;;;;;22.20;71.20;;;;;;4990076;28;20370;-54
2023/10/10 08:12:56;;;;;;;;;;;22.20;71.10;;;;;;4995312;28;19929;-53
2023/10/10 08:15:25;;;;;;;;;;;22.50;70.20;;;;;;4992171;28;20660;-54
2023/10/10 08:17:54;;;;;;;;;;;22.70;69.30;;;;;;4987715;28;20012;-53
2023/10/10 08:23:04;;;;;;;;;;;22.60;69.80;;;;;;4991417;28;19917;-55
2023/10/10 08:25:30;;;;;;;;;;;22.50;70.40;;;;;;4993416;28;20382;-55
2023/10/10 08:27:55;;;;;;;;;;;22.60;70.20;;;;;;4980056;28;19921;-55
2023/10/10 08:30:25;;;;;;;;;;;22.70;70.30;;;;;;4970259;28;19922;-55
2023/10/10 08:32:57;;;;;;;;;;;22.90;69.80;;;;;;4973956;28;19961;-54
2023/10/10 08:35:23;;;;;;;;;;;23.10;68.50;;;;;;4969257;28;20478;-56
2023/10/10 08:37:50;;;;;;;;;;;23.10;68.40;;;;;;4972106;28;20009;-56
2023/10/10 08:40:19;;;;;;;;;;;23.20;68.00;;;;;;4974800;28;20110;-55
2023/10/10 08:42:46;;;;;;;;;;;23.40;67.80;;;;;;4973676;28;20342;-56
2023/10/10 08:45:22;;;;;;;;;;;23.40;67.40;;;;;;4966542;28;19918;-56
2023/10/10 08:47:52;;;;;;;;;;;23.50;67.30;;;;;;4976328;28;19925;-56
2023/10/10 08:50:17;;;;;;;;;;;23.50;67.40;;;;;;4969870;28;19914;-55
2023/10/10 08:52:43;;;;;;;;;;;23.50;67.00;;;;;;4968337;28;19914;-56
2023/10/10 08:55:10;;;;;;;;;;;23.50;67.00;;;;;;4972276;28;19957;-56
2023/10/10 08:57:38;;;;;;;;;;;23.50;66.90;;;;;;4971324;28;20405;-55
2023/10/10 09:00:11;;;;;;;;;;;23.50;66.90;;;;;;4971476;28;19953;-55
2023/10/10 09:02:37;;;;;;;;;;;23.40;67.70;;;;;;4972765;28;20249;-56
2023/10/10 09:05:06;;;;;;;;;;;23.10;68.40;;;;;;4971394;28;19969;-54
2023/10/10 09:07:32;;;;;;;;;;;23.00;69.00;;;;;;4954522;28;19925;-55
2023/10/10 09:10:16;;;;;;;;;;;23.00;69.20;;;;;;4974894;28;20382;-56
2023/10/10 09:12:56;;;;;;;;;;;22.90;69.30;;;;;;4974119;28;19950;-56
2023/10/10 09:15:22;;;;;;;;;;;22.80;69.40;;;;;;4971578;28;20275;-56
2023/10/10 09:17:48;;;;;;;;;;;22.60;69.90;;;;;;4971984;28;20005;-56
2023/10/10 09:20:23;;;;;;;;;;;22.70;70.00;;;;;;5032938;23;19925;-55
2023/10/10 09:22:51;;;;;;;;;;;22.60;70.00;;;;;;5049861;28;19912;-55
2023/10/10 09:28:15;;;;;;;;;;;22.40;71.10;;;;;;5012135;28;19923;-54
2023/10/10 09:30:45;;;;;;;;;;;22.40;71.00;;;;;;5045834;28;19995;-55
2023/10/10 09:33:22;;;;;;;;;;;22.60;70.80;;;;;;5042548;28;20381;-55
2023/10/10 09:35:53;;;;;;;;;;;22.50;70.90;;;;;;5053006;28;19913;-54
2023/10/10 09:38:21;;;;;;;;;;;22.50;70.70;;;;;;5046353;28;20000;-54
2023/10/10 09:40:48;;;;;;;;;;;22.70;70.40;;;;;;5050073;28;20927;-54
2023/10/10 09:43:35;;;;;;;;;;;22.70;70.30;;;;;;5050261;28;19965;-55
2023/10/10 09:46:11;;;;;;;;;;;22.50;71.60;;;;;;5051468;28;20193;-55
2023/10/10 09:51:15;;;;;;;;;;;22.70;70.30;;;;;;5044470;28;19960;-56
2023/10/10 09:53:46;;;;;;;;;;;22.70;70.10;;;;;;5054325;28;19917;-55
2023/10/10 09:56:15;;;;;;;;;;;22.60;70.60;;;;;;5047327;28;19913;-56
2023/10/10 09:58:43;;;;;;;;;;;22.70;70.50;;;;;;5049127;28;19922;-55
2023/10/10 10:01:18;;;;;;;;;;;22.90;69.80;;;;;;5050224;28;19955;-55
2023/10/10 10:04:03;;;;;;;;;;;23.20;68.80;;;;;;5050364;28;19916;-55
2023/10/10 10:06:35;;;;;;;;;;;23.40;68.30;;;;;;5045365;28;19912;-55
2023/10/10 10:09:51;;;;;;;;;;;23.40;68.10;;;;;;5049073;28;19988;-55
2023/10/10 10:12:05;;;;;;;;;;;23.50;68.10;;;;;;5042731;28;19961;-57
2023/10/10 10:14:36;;;;;;;;;;;23.40;68.10;;;;;;5046004;28;19940;-56
2023/10/10 10:17:12;;;;;;;;;;;23.40;68.50;;;;;;5049274;28;20309;-56
2023/10/10 10:20:18;;;;;;;;;;;23.30;68.80;;;;;;5025118;28;19922;-56
2023/10/10 10:22:44;;;;;;;;;;;23.20;69.30;;;;;;4989830;28;19921;-55
2023/10/10 10:25:21;;;;;;;;;;;23.10;69.60;;;;;;4988558;28;19925;-56
2023/10/10 10:27:49;;;;;;;;;;;23.10;69.70;;;;;;5013614;28;20018;-56
2023/10/10 10:32:44;;;;;;;;;;;23.10;70.10;;;;;;5011977;28;19920;-54
2023/10/10 10:35:14;;;;;;;;;;;23.20;69.80;;;;;;5007298;28;19924;-56
2023/10/10 10:37:39;;;;;;;;;;;23.30;69.60;;;;;;5005471;28;19969;-56
2023/10/10 10:42:37;;;;;;;;;;;23.50;68.90;;;;;;5018711;28;19967;-56
2023/10/10 10:45:23;;;;;;;;;;;23.60;68.70;;;;;;4993316;28;20405;-56
2023/10/10 10:48:07;;;;;;;;;;;23.50;68.70;;;;;;5011920;28;20294;-56
2023/10/10 10:50:43;;;;;;;;;;;23.50;68.70;;;;;;4992330;28;20002;-56
2023/10/10 10:53:20;;;;;;;;;;;23.50;68.80;;;;;;5011889;28;19909;-53
2023/10/10 10:55:59;;;;;;;;;;;23.40;69.20;;;;;;5015050;28;20597;-56
2023/10/10 10:58:26;;;;;;;;;;;23.20;69.70;;;;;;5009592;28;19940;-53
2023/10/10 11:01:07;;;;;;;;;;;23.20;69.80;;;;;;5000773;28;20016;-54
2023/10/10 11:03:35;;;;;;;;;;;23.10;70.10;;;;;;5013075;28;20004;-54
2023/10/10 11:06:06;;;;;;;;;;;23.10;70.30;;;;;;5009411;28;20293;-54
2023/10/10 11:14:00;;;;;;;;;;;23.40;69.70;;;;;;5003359;28;20428;-55
2023/10/10 11:16:38;;;;;;;;;;;23.50;69.20;;;;;;4993764;28;19941;-55
2023/10/10 11:21:53;;;;;;;;;;;23.80;68.40;;;;;;5029187;28;19963;-56
2023/10/10 11:24:23;;;;;;;;;;;23.60;69.40;;;;;;5028338;28;19943;-55
2023/10/10 11:27:14;;;;;;;;;;;23.60;68.70;;;;;;5024624;28;20357;-55
2023/10/10 11:29:47;;;;;;;;;;;23.60;68.70;;;;;;5003196;28;19925;-55
2023/10/10 11:32:13;;;;;;;;;;;23.50;69.20;;;;;;5011753;28;20297;-55
2023/10/10 11:34:45;;;;;;;;;;;23.40;69.40;;;;;;5008954;28;19997;-56
2023/10/10 11:37:23;;;;;;;;;;;23.40;69.20;;;;;;5009080;28;19928;-55
2023/10/10 11:39:58;;;;;;;;;;;23.40;69.00;;;;;;5009110;28;19960;-55
2023/10/10 11:42:26;;;;;;;;;;;23.50;68.90;;;;;;5002655;28;19925;-53
2023/10/10 11:45:10;;;;;;;;;;;23.60;68.60;;;;;;4986371;28;19928;-56
2023/10/10 11:47:44;;;;;;;;;;;23.70;68.40;;;;;;5008643;28;19921;-55
2023/10/10 11:50:12;;;;;;;;;;;23.70;68.50;;;;;;5011187;28;19917;-55
2023/10/10 11:52:53;;;;;;;;;;;23.60;68.20;;;;;;5010807;28;19918;-55
2023/10/10 11:55:20;;;;;;;;;;;23.70;68.20;;;;;;4989909;28;19920;-55
2023/10/10 11:57:48;;;;;;;;;;;23.70;68.50;;;;;;4992760;28;20059;-55
2023/10/10 12:00:21;;;;;;;;;;;23.60;68.70;;;;;;5004315;28;20278;-55
2023/10/10 12:02:48;;;;;;;;;;;23.60;68.80;;;;;;5019012;28;19921;-55
2023/10/10 12:07:54;;;;;;;;;;;23.60;68.80;;;;;;5014489;28;19928;-55
2023/10/10 12:10:24;;;;;;;;;;;23.60;68.80;;;;;;5008847;28;19917;-56
2023/10/10 12:12:52;;;;;;;;;;;23.80;68.40;;;;;;5006963;28;19914;-55
2023/10/10 12:15:19;;;;;;;;;;;23.80;68.10;;;;;;4999241;28;19925;-55
2023/10/10 12:17:45;;;;;;;;;;;23.90;68.10;;;;;;5014540;28;19918;-55
2023/10/10 12:20:10;;;;;;;;;;;23.70;68.50;;;;;;5020764;28;19928;-56
2023/10/10 12:22:37;;;;;;;;;;;23.70;68.90;;;;;;5018861;28;19957;-53
2023/10/10 12:25:04;;;;;;;;;;;23.70;69.10;;;;;;5010087;28;19917;-56
2023/10/10 12:27:30;;;;;;;;;;;23.60;69.20;;;;;;5014618;28;19960;-55
2023/10/10 12:29:58;;;;;;;;;;;23.50;69.40;;;;;;5010122;28;19949;-56
2023/10/10 12:32:26;;;;;;;;;;;23.50;69.60;;;;;;5010818;28;20423;-55
2023/10/10 12:34:52;;;;;;;;;;;23.50;69.80;;;;;;5018865;28;20289;-55
2023/10/10 12:37:17;;;;;;;;;;;23.50;69.90;;;;;;5001980;28;19964;-55
2023/10/10 12:39:43;;;;;;;;;;;23.40;70.00;;;;;;5017729;28;19913;-55
2023/10/10 12:42:08;;;;;;;;;;;23.50;70.00;;;;;;5018702;28;19909;-55
2023/10/10 12:44:34;;;;;;;;;;;23.40;70.00;;;;;;5017830;28;19914;-54
2023/10/10 12:47:06;;;;;;;;;;;23.50;70.10;;;;;;5001065;28;19924;-55
2023/10/10 12:49:44;;;;;;;;;;;23.50;70.00;;;;;;5020832;28;19983;-54
2023/10/10 12:52:13;;;;;;;;;;;23.50;70.10;;;;;;5001106;28;19913;-56
2023/10/10 12:54:38;;;;;;;;;;;23.40;70.00;;;;;;5021549;28;19914;-55
2023/10/10 12:57:13;;;;;;;;;;;23.40;70.10;;;;;;5016473;28;19923;-55
2023/10/10 12:59:38;;;;;;;;;;;23.60;70.10;;;;;;4991480;28;20405;-55
2023/10/10 13:02:04;;;;;;;;;;;23.60;69.80;;;;;;5011725;28;19945;-55
2023/10/10 13:04:32;;;;;;;;;;;23.50;70.10;;;;;;5006721;28;19917;-56
2023/10/10 13:07:02;;;;;;;;;;;23.50;70.10;;;;;;5008911;28;20540;-57
2023/10/10 13:09:28;;;;;;;;;;;23.50;70.10;;;;;;5011669;28;19921;-56
2023/10/10 13:11:56;;;;;;;;;;;23.60;70.10;;;;;;5016072;28;19939;-55
2023/10/10 13:14:24;;;;;;;;;;;23.70;69.80;;;;;;5010828;28;19995;-55
2023/10/10 13:19:20;;;;;;;;;;;24.00;69.10;;;;;;5001712;28;20332;-55
2023/10/10 13:21:47;;;;;;;;;;;24.00;68.90;;;;;;5010452;28;19924;-55
2023/10/10 13:24:13;;;;;;;;;;;24.00;68.60;;;;;;5011595;28;19956;-55
2023/10/10 13:26:39;;;;;;;;;;;24.00;68.70;;;;;;5015994;28;20270;-54
2023/10/10 13:29:05;;;;;;;;;;;24.00;69.00;;;;;;5014142;28;19968;-55
2023/10/10 13:31:31;;;;;;;;;;;24.00;69.10;;;;;;5008365;28;20004;-55
2023/10/10 13:33:56;;;;;;;;;;;24.00;68.80;;;;;;5011091;28;19999;-55
2023/10/10 13:36:22;;;;;;;;;;;24.00;68.80;;;;;;5018594;28;20432;-54
2023/10/10 13:38:48;;;;;;;;;;;24.10;68.70;;;;;;5013680;28;19921;-55
2023/10/10 13:41:18;;;;;;;;;;;24.10;68.60;;;;;;5008974;28;19973;-56
2023/10/10 13:43:44;;;;;;;;;;;24.10;68.60;;;;;;5025484;28;19921;-55
2023/10/10 13:46:10;;;;;;;;;;;24.20;68.50;;;;;;5010955;28;20680;-55
2023/10/10 13:48:36;;;;;;;;;;;24.10;68.60;;;;;;5011246;28;19947;-56
2023/10/10 13:51:04;;;;;;;;;;;24.10;68.80;;;;;;5017472;28;20059;-54
2023/10/10 13:53:31;;;;;;;;;;;24.00;69.20;;;;;;5011681;28;19929;-56
2023/10/10 13:56:00;;;;;;;;;;;24.00;69.10;;;;;;5012183;28;20012;-55
2023/10/10 13:58:25;;;;;;;;;;;23.90;69.60;;;;;;4991270;28;19914;-56
2023/10/10 14:00:55;;;;;;;;;;;23.80;69.70;;;;;;5009886;28;19924;-56
2023/10/10 14:03:35;;;;;;;;;;;23.80;70.10;;;;;;5011844;28;20960;-55
2023/10/10 14:06:00;;;;;;;;;;;23.80;70.30;;;;;;4992918;28;20360;-55
2023/10/10 14:08:26;;;;;;;;;;;23.70;70.30;;;;;;5008348;28;20055;-56
2023/10/10 14:10:54;;;;;;;;;;;23.60;70.30;;;;;;5009618;28;20262;-56
2023/10/10 14:13:19;;;;;;;;;;;23.70;70.30;;;;;;4990534;28;20328;-56
2023/10/10 14:15:54;;;;;;;;;;;23.60;70.30;;;;;;5014058;28;19964;-56
2023/10/10 14:18:43;;;;;;;;;;;23.70;70.70;;;;;;5031161;28;19924;-55
2023/10/10 14:21:09;;;;;;;;;;;23.60;70.70;;;;;;5015914;28;19925;-55
2023/10/10 14:23:39;;;;;;;;;;;23.60;70.80;;;;;;5007833;28;19918;-54
2023/10/10 14:26:14;;;;;;;;;;;23.70;70.60;;;;;;5021210;28;19917;-55
2023/10/10 14:28:50;;;;;;;;;;;23.70;70.90;;;;;;5009510;28;19925;-56
2023/10/10 14:31:17;;;;;;;;;;;23.60;71.10;;;;;;5020095;28;19917;-56
2023/10/10 14:33:43;;;;;;;;;;;23.50;71.30;;;;;;5016201;28;19948;-55
2023/10/10 14:36:11;;;;;;;;;;;23.40;71.70;;;;;;5015492;28;19980;-55
2023/10/10 14:38:38;;;;;;;;;;;23.40;71.80;;;;;;5022093;28;19920;-56
2023/10/10 14:41:07;;;;;;;;;;;23.30;71.90;;;;;;5007961;28;20369;-56
2023/10/10 14:43:33;;;;;;;;;;;23.30;72.10;;;;;;5002685;28;19929;-56
2023/10/10 14:45:58;;;;;;;;;;;23.30;72.10;;;;;;5017738;28;19917;-56
2023/10/10 14:48:24;;;;;;;;;;;23.40;72.30;;;;;;5004648;28;19921;-56
2023/10/10 14:50:52;;;;;;;;;;;23.30;72.40;;;;;;5001917;28;20379;-55
2023/10/10 14:53:22;;;;;;;;;;;23.30;72.50;;;;;;5023758;28;20301;-55
2023/10/10 14:55:50;;;;;;;;;;;23.30;72.60;;;;;;5019799;28;19910;-56
2023/10/10 14:58:22;;;;;;;;;;;23.30;72.40;;;;;;5018670;28;19920;-56
2023/10/10 15:00:49;;;;;;;;;;;23.40;72.50;;;;;;5022442;28;20639;-55
2023/10/10 15:03:15;;;;;;;;;;;23.30;72.40;;;;;;5017455;28;19918;-56
2023/10/10 15:05:47;;;;;;;;;;;23.30;72.40;;;;;;5015460;28;20151;-56
2023/10/10 15:08:14;;;;;;;;;;;23.40;72.40;;;;;;5019787;28;20004;-55
2023/10/10 15:10:40;;;;;;;;;;;23.50;72.30;;;;;;5003559;28;20396;-55
2023/10/10 15:13:08;;;;;;;;;;;23.50;72.30;;;;;;5020159;28;19913;-54
2023/10/10 15:15:34;;;;;;;;;;;23.40;72.30;;;;;;5018246;28;19994;-55
2023/10/10 15:18:00;;;;;;;;;;;23.40;72.30;;;;;;5024051;28;20405;-55
2023/10/10 15:20:27;;;;;;;;;;;23.50;72.10;;;;;;5025185;28;19936;-56
2023/10/10 15:22:53;;;;;;;;;;;23.40;72.10;;;;;;5028267;28;19917;-55
2023/10/10 15:25:19;;;;;;;;;;;23.50;72.30;;;;;;5030227;28;20606;-55
2023/10/10 15:27:44;;;;;;;;;;;23.50;72.20;;;;;;5032244;28;19925;-55
2023/10/10 15:30:10;;;;;;;;;;;23.50;72.10;;;;;;5031573;28;20297;-55
2023/10/10 15:32:47;;;;;;;;;;;23.50;71.90;;;;;;5026632;28;19995;-56
2023/10/10 15:35:19;;;;;;;;;;;23.50;71.90;;;;;;5026872;28;19913;-54
2023/10/10 15:37:44;;;;;;;;;;;23.50;72.00;;;;;;5030195;28;20004;-56
2023/10/10 15:40:20;;;;;;;;;;;23.50;72.10;;;;;;5041912;28;20003;-56
2023/10/10 15:42:58;;;;;;;;;;;23.50;72.90;;;;;;5040192;28;19971;-55
2023/10/10 15:45:23;;;;;;;;;;;23.50;72.30;;;;;;5030301;28;20016;-55
2023/10/10 15:47:49;;;;;;;;;;;23.50;72.50;;;;;;5031130;28;20563;-55
2023/10/10 15:50:16;;;;;;;;;;;23.50;72.30;;;;;;5031370;28;19928;-54
2023/10/10 15:52:43;;;;;;;;;;;23.60;72.00;;;;;;5031342;28;19917;-55
2023/10/10 15:55:11;;;;;;;;;;;23.50;72.20;;;;;;5033333;28;20397;-56
2023/10/10 15:57:36;;;;;;;;;;;23.50;72.30;;;;;;5032278;28;19913;-55
2023/10/10 16:00:10;;;;;;;;;;;23.50;72.50;;;;;;5030360;28;19921;-55
2023/10/10 16:02:39;;;;;;;;;;;23.50;72.40;;;;;;5028398;28;21300;-55
2023/10/10 16:05:05;;;;;;;;;;;23.50;72.60;;;;;;5029928;28;19990;-54
2023/10/10 16:07:30;;;;;;;;;;;23.50;72.50;;;;;;5033170;28;20017;-54
2023/10/10 16:09:56;;;;;;;;;;;23.40;72.60;;;;;;5033549;28;20007;-55
2023/10/10 16:12:22;;;;;;;;;;;23.50;72.50;;;;;;5032558;28;19921;-55
2023/10/10 16:14:47;;;;;;;;;;;23.40;72.80;;;;;;5029376;28;19920;-54
2023/10/10 16:17:16;;;;;;;;;;;23.40;72.80;;;;;;5032432;28;20603;-55
2023/10/10 16:19:42;;;;;;;;;;;23.40;72.70;;;;;;5032754;28;19921;-55
2023/10/10 16:22:12;;;;;;;;;;;23.50;72.80;;;;;;5021778;28;19921;-55
2023/10/10 16:24:39;;;;;;;;;;;23.40;72.80;;;;;;5031785;28;19921;-55
2023/10/10 16:27:04;;;;;;;;;;;23.40;72.80;;;;;;5021347;28;19913;-55
2023/10/10 16:29:33;;;;;;;;;;;23.50;72.80;;;;;;5031758;28;19921;-55
2023/10/10 16:31:59;;;;;;;;;;;23.40;72.80;;;;;;5023184;28;19975;-55
2023/10/10 16:34:26;;;;;;;;;;;23.50;72.70;;;;;;5026391;28;20306;-55
2023/10/10 16:36:52;;;;;;;;;;;23.50;72.60;;;;;;5023875;28;19913;-56
2023/10/10 16:39:18;;;;;;;;;;;23.50;72.70;;;;;;5026061;28;19959;-55
2023/10/10 16:41:44;;;;;;;;;;;23.50;72.80;;;;;;5032786;28;19920;-54
2023/10/10 16:44:13;;;;;;;;;;;23.50;72.60;;;;;;5027284;28;19921;-55
2023/10/10 16:46:39;;;;;;;;;;;23.50;72.80;;;;;;5032064;28;19913;-55
2023/10/10 16:49:05;;;;;;;;;;;23.50;72.60;;;;;;5030112;28;19932;-56
2023/10/10 16:51:31;;;;;;;;;;;23.50;72.70;;;;;;5030994;28;19913;-56
2023/10/10 16:53:57;;;;;;;;;;;23.50;72.60;;;;;;5031334;28;19924;-56
2023/10/10 16:56:22;;;;;;;;;;;23.50;72.50;;;;;;5030173;28;19917;-56
2023/10/10 16:58:49;;;;;;;;;;;23.50;72.60;;;;;;5021454;28;19970;-56
2023/10/10 17:01:20;;;;;;;;;;;23.40;72.80;;;;;;5022012;28;19944;-55
2023/10/10 17:03:47;;;;;;;;;;;23.50;72.90;;;;;;5025125;28;19917;-56
2023/10/10 17:06:13;;;;;;;;;;;23.50;73.00;;;;;;5024263;28;19921;-56
2023/10/10 17:08:39;;;;;;;;;;;23.60;72.80;;;;;;5024210;28;20266;-56